createdAt,value
2023-04-19T00:00:12.261Z,70.79
2023-04-19T00:02:42.765Z,70.49
2023-04-19T00:05:12.030Z,69.90
2023-04-19T00:07:40.471Z,69.61
2023-04-19T00:10:09.717Z,69.27
2023-04-19T00:12:38.017Z,69.04
2023-04-19T00:15:08.561Z,68.53
2023-04-19T00:17:36.739Z,68.49
2023-04-19T00:20:05.633Z,68.30
2023-04-19T00:22:33.784Z,67.80
2023-04-19T00:25:02.272Z,67.55
2023-04-19T00:27:30.393Z,67.36
2023-04-19T00:29:58.530Z,67.01
2023-04-19T00:32:28.099Z,66.72
2023-04-19T00:34:56.254Z,66.49
2023-04-19T00:37:24.340Z,66.41
2023-04-19T00:39:52.429Z,66.37
2023-04-19T00:42:20.481Z,66.19
2023-04-19T00:44:48.600Z,66.02
2023-04-19T00:47:16.879Z,65.89
2023-04-19T00:49:46.406Z,66.12
2023-04-19T00:52:14.502Z,66.48
2023-04-19T00:54:44.456Z,66.56
2023-04-19T00:57:12.524Z,66.79
2023-04-19T00:59:41.186Z,67.12
2023-04-19T01:02:10.175Z,67.61
2023-04-19T01:04:38.551Z,67.81
2023-04-19T01:07:08.193Z,68.42
2023-04-19T01:09:36.446Z,68.87
2023-04-19T01:12:04.592Z,69.23
2023-04-19T01:14:32.687Z,69.50
2023-04-19T01:17:00.726Z,69.78
2023-04-19T01:19:28.878Z,69.90
2023-04-19T01:21:58.333Z,70.02
2023-04-19T01:24:27.788Z,70.15
2023-04-19T01:26:56.294Z,70.18
2023-04-19T01:29:24.373Z,70.20
2023-04-19T01:31:53.854Z,70.39
2023-04-19T01:34:23.177Z,70.23
2023-04-19T01:36:51.439Z,70.74
2023-04-19T01:39:19.677Z,70.68
2023-04-19T01:41:49.088Z,70.77
2023-04-19T01:44:17.338Z,70.75
2023-04-19T01:46:45.779Z,71.12
2023-04-19T01:49:13.936Z,71.36
2023-04-19T01:51:42.420Z,71.37
2023-04-19T01:54:10.526Z,71.62
2023-04-19T01:56:38.624Z,71.64
2023-04-19T01:59:08.070Z,71.34
2023-04-19T02:01:36.173Z,71.45
2023-04-19T02:04:04.816Z,71.85
2023-04-19T02:06:33.071Z,72.27
2023-04-19T02:09:01.203Z,72.52
2023-04-19T02:11:29.291Z,72.80
2023-04-19T02:13:57.366Z,73.05
2023-04-19T02:16:26.901Z,73.42
2023-04-19T02:18:55.105Z,73.52
2023-04-19T02:21:23.167Z,73.55
2023-04-19T02:23:51.286Z,73.70
2023-04-19T02:26:20.380Z,73.64
2023-04-19T02:28:48.432Z,73.59
2023-04-19T02:31:16.509Z,73.49
2023-04-19T02:33:47.176Z,73.45
2023-04-19T02:36:15.231Z,73.50
2023-04-19T02:38:43.699Z,73.26
2023-04-19T02:41:11.802Z,73.17
2023-04-19T02:43:39.894Z,73.41
2023-04-19T02:46:08.055Z,72.86
2023-04-19T02:48:36.172Z,72.81
2023-04-19T02:51:05.640Z,72.91
2023-04-19T02:53:33.712Z,72.94
2023-04-19T02:56:02.359Z,72.95
2023-04-19T02:58:30.435Z,73.16
2023-04-19T03:00:58.546Z,73.11
2023-04-19T03:03:26.800Z,72.90
2023-04-19T03:05:55.224Z,73.06
2023-04-19T03:08:24.685Z,73.63
2023-04-19T03:10:52.746Z,73.95
2023-04-19T03:13:20.844Z,74.54
2023-04-19T03:15:49.217Z,74.65
2023-04-19T03:18:18.010Z,74.77
2023-04-19T03:20:46.077Z,74.89
2023-04-19T03:23:14.144Z,75.13
2023-04-19T03:25:43.656Z,75.02
2023-04-19T03:28:11.694Z,75.01
2023-04-19T03:30:39.772Z,75.11
2023-04-19T03:33:07.893Z,75.10
2023-04-19T03:35:36.005Z,75.14
2023-04-19T03:38:04.147Z,75.34
2023-04-19T03:40:34.267Z,75.59
2023-04-19T03:43:03.724Z,75.96
2023-04-19T03:45:31.981Z,75.96
2023-04-19T03:48:02.177Z,76.18
2023-04-19T03:50:31.134Z,76.37
2023-04-19T03:52:59.206Z,76.22
2023-04-19T03:55:27.373Z,76.21
2023-04-19T03:57:55.502Z,76.19
2023-04-19T04:00:25.218Z,76.13
2023-04-19T04:02:53.465Z,76.05
2023-04-19T04:05:21.777Z,76.02
2023-04-19T04:07:49.873Z,76.55
2023-04-19T04:10:18.063Z,76.14
2023-04-19T04:12:46.121Z,75.83
2023-04-19T04:15:14.425Z,75.62
2023-04-19T04:17:43.887Z,75.39
2023-04-19T04:20:13.563Z,75.19
2023-04-19T04:22:43.278Z,75.08
2023-04-19T04:25:12.520Z,75.01
2023-04-19T04:27:40.604Z,74.28
2023-04-19T04:30:09.740Z,74.04
2023-04-19T04:32:38.364Z,73.75
2023-04-19T04:35:09.825Z,73.32
2023-04-19T04:37:38.141Z,72.84
2023-04-19T04:40:08.151Z,72.52
2023-04-19T04:42:37.781Z,72.14
2023-04-19T04:45:06.648Z,71.36
2023-04-19T04:47:35.471Z,71.09
2023-04-19T04:50:04.115Z,70.52
2023-04-19T04:52:33.534Z,70.00
2023-04-19T04:55:01.621Z,69.85
2023-04-19T04:57:29.656Z,69.41
2023-04-19T04:59:57.754Z,68.93
2023-04-19T05:02:26.305Z,68.47
2023-04-19T05:04:54.513Z,68.15
2023-04-19T05:07:22.622Z,67.87
2023-04-19T05:09:52.127Z,67.52
2023-04-19T05:12:20.167Z,67.29
2023-04-19T05:14:48.252Z,66.73
2023-04-19T05:17:16.319Z,66.44
2023-04-19T05:19:44.477Z,66.43
2023-04-19T05:22:12.601Z,66.45
2023-04-19T05:24:42.302Z,66.46
2023-04-19T05:27:12.310Z,66.28
2023-04-19T05:29:40.448Z,65.88
2023-04-19T05:32:08.729Z,65.92
2023-04-19T05:34:37.522Z,65.74
2023-04-19T05:37:06.632Z,65.34
2023-04-19T05:39:34.715Z,64.75
2023-04-19T05:42:02.962Z,64.16
2023-04-19T05:44:32.904Z,63.25
2023-04-19T05:47:01.252Z,62.13
2023-04-19T05:49:29.348Z,61.14
2023-04-19T05:51:57.420Z,59.81
2023-04-19T05:54:26.200Z,59.26
2023-04-19T05:56:54.273Z,58.25
2023-04-19T05:59:22.406Z,57.59
2023-04-19T06:01:52.756Z,57.29
2023-04-19T06:04:21.635Z,56.33
2023-04-19T06:06:50.180Z,55.91
2023-04-19T06:09:19.267Z,56.06
2023-04-19T06:11:51.216Z,56.21
2023-04-19T06:14:19.834Z,56.21
2023-04-19T06:16:48.124Z,56.16
2023-04-19T06:19:17.702Z,55.92
2023-04-19T06:21:46.034Z,55.50
2023-04-19T06:24:14.343Z,54.90
2023-04-19T06:26:43.258Z,55.04
2023-04-19T06:29:11.386Z,54.73
2023-04-19T06:31:39.647Z,54.74
2023-04-19T06:34:07.789Z,54.74
2023-04-19T06:36:37.264Z,54.55
2023-04-19T06:39:05.469Z,54.48
2023-04-19T06:41:33.540Z,54.33
2023-04-19T06:44:01.656Z,53.25
2023-04-19T06:46:29.894Z,53.05
2023-04-19T06:48:58.040Z,51.95
2023-04-19T06:51:26.136Z,51.93
2023-04-19T06:53:55.615Z,51.88
2023-04-19T06:56:42.147Z,51.03
2023-04-19T06:59:10.278Z,50.92
2023-04-19T07:01:38.876Z,51.38
2023-04-19T07:04:07.688Z,50.87
2023-04-19T07:06:36.039Z,50.69
2023-04-19T07:09:06.502Z,50.23
2023-04-19T07:11:35.114Z,49.03
2023-04-19T07:14:03.322Z,48.20
2023-04-19T07:16:31.496Z,47.72
2023-04-19T07:18:59.840Z,48.11
2023-04-19T07:21:32.788Z,48.88
2023-04-19T07:24:00.967Z,48.41
2023-04-19T07:26:30.742Z,48.56
2023-04-19T07:28:58.851Z,47.67
2023-04-19T07:31:27.166Z,47.65
2023-04-19T07:33:55.689Z,47.52
2023-04-19T07:36:23.838Z,47.66
2023-04-19T07:38:52.236Z,48.05
2023-04-19T07:41:20.401Z,47.62
2023-04-19T07:43:49.815Z,47.50
2023-04-19T07:46:18.616Z,47.59
2023-04-19T07:48:47.328Z,47.18
2023-04-19T07:51:17.452Z,47.05
2023-04-19T07:53:45.592Z,46.70
2023-04-19T07:56:14.353Z,46.31
2023-04-19T07:58:43.025Z,45.90
2023-04-19T08:01:13.454Z,45.10
2023-04-19T08:03:42.242Z,44.43
2023-04-19T08:06:10.468Z,45.28
2023-04-19T08:08:38.537Z,44.53
2023-04-19T08:11:07.140Z,43.74
2023-04-19T08:13:35.982Z,43.78
2023-04-19T08:16:32.286Z,43.26
2023-04-19T08:18:53.583Z,42.83
2023-04-19T08:21:26.091Z,42.67
2023-04-19T08:23:59.319Z,42.48
2023-04-19T08:26:27.450Z,41.46
2023-04-19T08:28:55.519Z,41.13
2023-04-19T08:31:23.684Z,41.54
2023-04-19T08:33:53.241Z,41.46
2023-04-19T08:36:32.524Z,41.20
2023-04-19T08:39:10.055Z,40.19
2023-04-19T08:41:44.885Z,40.51
2023-04-19T08:44:15.877Z,39.99
2023-04-19T08:46:46.622Z,39.76
2023-04-19T08:49:16.329Z,39.29
2023-04-19T08:51:45.441Z,39.02
2023-04-19T08:54:13.882Z,39.07
2023-04-19T08:56:42.128Z,39.06
2023-04-19T08:59:18.070Z,38.79
2023-04-19T09:01:46.731Z,39.05
2023-04-19T09:04:35.678Z,38.20
2023-04-19T09:07:04.312Z,38.32
2023-04-19T09:09:40.759Z,37.12
2023-04-19T09:12:18.756Z,37.32
2023-04-19T09:15:00.669Z,36.37
2023-04-19T09:17:29.878Z,35.60
2023-04-19T09:19:59.804Z,36.15
2023-04-19T09:22:28.095Z,36.62
2023-04-19T09:27:29.998Z,36.98
2023-04-19T09:29:58.955Z,36.42
2023-04-19T09:32:28.251Z,36.67
2023-04-19T09:34:57.960Z,37.49
2023-04-19T09:37:51.328Z,37.46
2023-04-19T09:40:26.916Z,37.83
2023-04-19T09:43:08.872Z,36.82
2023-04-19T09:45:44.058Z,37.36
2023-04-19T09:48:13.088Z,37.85
2023-04-19T09:50:58.594Z,37.94
2023-04-19T09:53:34.278Z,38.33
2023-04-19T09:56:04.413Z,38.95
2023-04-19T10:01:14.155Z,38.87
2023-04-19T10:03:45.982Z,38.15
2023-04-19T10:06:39.968Z,38.46
2023-04-19T10:09:07.012Z,37.39
2023-04-19T10:11:40.061Z,38.24
2023-04-19T10:14:09.811Z,38.53
2023-04-19T10:16:39.358Z,38.11
2023-04-19T10:19:10.612Z,37.24
2023-04-19T10:21:39.568Z,36.83
2023-04-19T10:24:10.130Z,35.04
2023-04-19T10:27:11.380Z,34.84
2023-04-19T10:30:03.901Z,33.68
2023-04-19T10:32:39.708Z,32.86
2023-04-19T10:35:12.892Z,33.00
2023-04-19T10:37:42.956Z,33.10
2023-04-19T10:40:13.471Z,33.65
2023-04-19T10:43:16.091Z,33.52
2023-04-19T10:45:46.663Z,34.64
2023-04-19T10:48:44.103Z,34.69
2023-04-19T10:51:16.898Z,35.04
2023-04-19T10:53:49.687Z,34.86
2023-04-19T10:56:20.273Z,33.42
2023-04-19T10:59:15.166Z,33.51
2023-04-19T11:01:45.313Z,33.18
2023-04-19T11:04:14.774Z,32.50
2023-04-19T11:07:01.320Z,32.01
2023-04-19T11:09:31.716Z,31.40
2023-04-19T11:12:03.601Z,30.61
2023-04-19T11:14:36.233Z,31.03
2023-04-19T11:17:14.888Z,30.62
2023-04-19T11:19:44.701Z,29.47
2023-04-19T11:22:12.814Z,29.17
2023-04-19T11:24:47.025Z,30.12
2023-04-19T11:27:16.725Z,29.87
2023-04-19T11:29:44.934Z,30.26
2023-04-19T11:32:13.042Z,29.97
2023-04-19T11:34:41.790Z,30.14
2023-04-19T11:37:12.031Z,30.93
2023-04-19T11:39:47.361Z,30.34
2023-04-19T11:42:21.044Z,30.23
2023-04-19T11:44:52.841Z,30.15
2023-04-19T11:47:21.202Z,29.96
2023-04-19T11:49:49.283Z,30.02
2023-04-19T11:52:23.003Z,30.54
2023-04-19T11:54:52.298Z,30.46
2023-04-19T11:57:30.249Z,31.35
2023-04-19T12:00:11.934Z,31.79
2023-04-19T12:02:41.219Z,31.67
2023-04-19T12:05:11.576Z,31.10
2023-04-19T12:07:55.211Z,32.18
2023-04-19T12:10:23.494Z,32.32
2023-04-19T12:12:52.960Z,31.21
2023-04-19T12:15:23.083Z,31.10
2023-04-19T12:18:01.707Z,31.25
2023-04-19T12:20:31.577Z,30.41
2023-04-19T12:22:59.790Z,29.98
2023-04-19T12:25:31.709Z,29.92
2023-04-19T12:28:02.194Z,29.55
2023-04-19T12:30:30.561Z,28.75
2023-04-19T12:32:59.649Z,27.21
2023-04-19T12:35:28.492Z,28.17
2023-04-19T12:37:58.206Z,27.69
2023-04-19T12:40:27.686Z,26.48
2023-04-19T12:42:56.048Z,26.50
2023-04-19T12:45:25.580Z,26.39
2023-04-19T12:47:53.873Z,26.99
2023-04-19T12:50:22.203Z,26.98
2023-04-19T12:52:51.957Z,26.86
2023-04-19T12:55:20.126Z,26.93
2023-04-19T12:57:48.735Z,27.15
2023-04-19T13:00:17.497Z,27.21
2023-04-19T13:02:48.491Z,26.63
2023-04-19T13:05:16.910Z,26.73
2023-04-19T13:07:45.126Z,26.61
2023-04-19T13:10:13.525Z,26.70
2023-04-19T13:12:41.705Z,26.75
2023-04-19T13:15:11.075Z,26.98
2023-04-19T13:17:39.262Z,27.01
2023-04-19T13:20:10.568Z,26.80
2023-04-19T13:22:38.704Z,26.94
2023-04-19T13:25:07.615Z,26.40
2023-04-19T13:27:35.784Z,26.93
2023-04-19T13:30:04.080Z,27.09
2023-04-19T13:32:32.491Z,26.24
2023-04-19T13:35:00.628Z,26.48
2023-04-19T13:37:30.305Z,27.49
2023-04-19T13:40:10.728Z,27.95
2023-04-19T13:42:45.922Z,28.07
2023-04-19T13:45:14.339Z,28.66
2023-04-19T13:47:42.545Z,29.33
2023-04-19T13:50:11.052Z,29.11
2023-04-19T13:52:40.522Z,28.89
2023-04-19T13:55:09.276Z,28.94
2023-04-19T13:57:37.335Z,28.94
2023-04-19T14:00:06.542Z,28.18
2023-04-19T14:02:34.885Z,28.48
2023-04-19T14:05:04.570Z,27.98
2023-04-19T14:07:32.754Z,27.68
2023-04-19T14:10:02.258Z,27.47
2023-04-19T14:12:30.645Z,28.28
2023-04-19T14:14:58.819Z,28.09
2023-04-19T14:17:27.481Z,27.73
2023-04-19T14:19:56.222Z,27.85
2023-04-19T14:22:24.388Z,28.09
2023-04-19T14:24:52.499Z,28.93
2023-04-19T14:27:22.141Z,28.80
2023-04-19T14:29:50.235Z,29.49
2023-04-19T14:32:25.799Z,28.75
2023-04-19T14:34:55.923Z,28.85
2023-04-19T14:37:25.205Z,28.95
2023-04-19T14:39:53.328Z,29.38
2023-04-19T14:42:23.146Z,29.37
2023-04-19T14:44:52.721Z,29.34
2023-04-19T14:47:21.540Z,29.97
2023-04-19T14:49:49.957Z,29.74
2023-04-19T14:52:18.237Z,29.65
2023-04-19T14:54:46.395Z,29.92
2023-04-19T14:57:14.973Z,29.72
2023-04-19T14:59:44.458Z,29.81
2023-04-19T15:02:13.493Z,30.85
2023-04-19T15:04:42.357Z,30.62
2023-04-19T15:07:11.406Z,30.42
2023-04-19T15:09:40.308Z,30.70
2023-04-19T15:12:08.617Z,30.70
2023-04-19T15:14:36.954Z,30.88
2023-04-19T15:17:06.725Z,31.26
2023-04-19T15:19:34.833Z,30.96
2023-04-19T15:22:04.136Z,30.99
2023-04-19T15:24:32.889Z,31.24
2023-04-19T15:27:01.564Z,30.98
2023-04-19T15:29:29.742Z,30.93
2023-04-19T15:31:57.918Z,31.31
2023-04-19T15:34:27.380Z,31.86
2023-04-19T15:36:55.484Z,31.52
2023-04-19T15:39:23.563Z,31.71
2023-04-19T15:41:52.042Z,32.58
2023-04-19T15:44:20.174Z,32.39
2023-04-19T15:46:48.297Z,32.42
2023-04-19T15:49:16.761Z,32.65
2023-04-19T15:51:46.610Z,31.85
2023-04-19T15:54:15.775Z,31.86
2023-04-19T15:56:43.865Z,32.17
2023-04-19T15:59:12.007Z,31.98
2023-04-19T16:01:40.180Z,32.34
2023-04-19T16:04:08.392Z,32.16
2023-04-19T16:06:36.551Z,32.53
2023-04-19T16:09:06.545Z,31.88
2023-04-19T16:11:34.721Z,32.90
2023-04-19T16:14:02.883Z,33.73
2023-04-19T16:16:34.770Z,34.56
2023-04-19T16:19:03.028Z,34.84
2023-04-19T16:21:31.523Z,34.87
2023-04-19T16:24:00.769Z,34.94
2023-04-19T16:26:30.210Z,34.99
2023-04-19T16:28:59.232Z,35.02
2023-04-19T16:31:27.514Z,35.88
2023-04-19T16:33:55.682Z,36.27
2023-04-19T16:36:23.778Z,36.79
2023-04-19T16:38:51.896Z,37.27
2023-04-19T16:41:19.962Z,38.17
2023-04-19T16:43:49.371Z,38.58
2023-04-19T16:46:17.629Z,39.17
2023-04-19T16:48:45.796Z,40.28
2023-04-19T16:51:13.863Z,40.77
2023-04-19T16:53:42.800Z,41.16
2023-04-19T16:56:10.881Z,41.42
2023-04-19T16:58:39.000Z,41.86
2023-04-19T17:01:09.040Z,42.35
2023-04-19T17:03:37.352Z,42.41
2023-04-19T17:06:05.764Z,42.90
2023-04-19T17:08:33.983Z,42.92
2023-04-19T17:11:02.071Z,43.05
2023-04-19T17:13:30.599Z,42.96
2023-04-19T17:15:58.776Z,43.32
2023-04-19T17:18:28.306Z,43.03
2023-04-19T17:20:56.405Z,43.16
2023-04-19T17:23:24.541Z,44.15
2023-04-19T17:25:52.673Z,44.20
2023-04-19T17:28:20.731Z,45.19
2023-04-19T17:30:48.793Z,45.34
2023-04-19T17:33:16.864Z,46.05
2023-04-19T17:35:46.339Z,46.59
2023-04-19T17:38:14.418Z,46.83
2023-04-19T17:40:42.510Z,46.75
2023-04-19T17:43:11.291Z,46.27
2023-04-19T17:45:39.403Z,46.27
2023-04-19T17:48:07.696Z,46.91
2023-04-19T17:50:36.062Z,47.18
2023-04-19T17:53:05.521Z,47.23
2023-04-19T17:55:33.760Z,47.30
2023-04-19T17:58:02.105Z,47.42
2023-04-19T18:00:30.377Z,47.62
2023-04-19T18:02:58.715Z,47.76
2023-04-19T18:05:26.933Z,47.98
2023-04-19T18:07:55.134Z,48.50
2023-04-19T18:10:24.626Z,49.02
2023-04-19T18:12:53.751Z,49.48
2023-04-19T18:15:22.130Z,50.01
2023-04-19T18:17:50.240Z,50.72
2023-04-19T18:20:19.668Z,51.14
2023-04-19T18:22:49.826Z,51.42
2023-04-19T18:25:18.072Z,51.92
2023-04-19T18:27:49.339Z,52.32
2023-04-19T18:30:17.675Z,52.61
2023-04-19T18:32:45.804Z,53.18
2023-04-19T18:35:14.051Z,53.21
2023-04-19T18:37:42.172Z,53.79
2023-04-19T18:40:11.016Z,53.48
2023-04-19T18:42:39.105Z,53.77
2023-04-19T18:45:10.274Z,54.02
2023-04-19T18:47:38.426Z,54.31
2023-04-19T18:50:08.533Z,54.29
2023-04-19T18:52:37.215Z,54.45
2023-04-19T18:55:06.070Z,54.76
2023-04-19T18:57:37.837Z,54.94
2023-04-19T19:00:09.483Z,54.96
2023-04-19T19:02:40.879Z,55.24
2023-04-19T19:05:13.548Z,55.57
2023-04-19T19:07:42.472Z,55.79
2023-04-19T19:10:19.442Z,56.18
2023-04-19T19:12:50.097Z,56.45
2023-04-19T19:15:18.593Z,56.55
2023-04-19T19:17:51.245Z,57.20
2023-04-19T19:20:20.166Z,57.43
2023-04-19T19:22:48.496Z,57.72
2023-04-19T19:25:16.687Z,57.96
2023-04-19T19:28:02.919Z,58.11
2023-04-19T19:30:33.945Z,58.70
2023-04-19T19:33:04.806Z,58.66
2023-04-19T19:35:33.509Z,58.88
2023-04-19T19:38:02.844Z,58.98
2023-04-19T19:40:32.427Z,59.24
2023-04-19T19:43:01.311Z,59.13
2023-04-19T19:45:30.066Z,59.50
2023-04-19T19:47:59.605Z,59.81
2023-04-19T19:53:01.751Z,60.49
2023-04-19T19:55:30.336Z,60.77
2023-04-19T20:00:42.725Z,61.42
2023-04-19T20:03:13.716Z,61.58
2023-04-19T20:05:43.616Z,61.82
2023-04-19T20:08:13.265Z,61.89
2023-04-19T20:10:43.146Z,61.93
2023-04-19T20:13:12.961Z,61.88
2023-04-19T20:15:41.534Z,62.08
2023-04-19T20:18:09.659Z,62.19
2023-04-19T20:20:38.086Z,62.32
2023-04-19T20:23:07.646Z,62.50
2023-04-19T20:25:35.926Z,62.73
2023-04-19T20:28:04.788Z,62.82
2023-04-19T20:30:32.976Z,62.83
2023-04-19T20:33:01.217Z,62.73
2023-04-19T20:35:29.571Z,63.06
2023-04-19T20:38:02.460Z,63.17
2023-04-19T20:40:32.230Z,63.49
2023-04-19T20:43:00.361Z,63.57
2023-04-19T20:45:28.763Z,63.68
2023-04-19T20:47:58.412Z,63.90
2023-04-19T20:50:26.713Z,64.25
2023-04-19T20:52:54.829Z,64.16
2023-04-19T20:55:23.003Z,64.58
2023-04-19T20:57:52.461Z,64.84
2023-04-19T21:00:20.755Z,65.23
2023-04-19T21:02:49.584Z,65.34
2023-04-19T21:05:17.953Z,65.54
2023-04-19T21:07:46.143Z,66.12
2023-04-19T21:10:16.358Z,66.22
2023-04-19T21:12:44.653Z,66.60
2023-04-19T21:15:14.285Z,66.76
2023-04-19T21:17:42.474Z,66.83
2023-04-19T21:20:14.139Z,67.27
2023-04-19T21:22:42.795Z,67.24
2023-04-19T21:25:12.299Z,67.40
2023-04-19T21:27:41.557Z,67.34
2023-04-19T21:30:11.058Z,67.49
2023-04-19T21:32:40.593Z,67.67
2023-04-19T21:35:09.359Z,67.69
2023-04-19T21:37:37.543Z,67.56
2023-04-19T21:40:06.615Z,67.53
2023-04-19T21:42:34.782Z,67.40
2023-04-19T21:45:03.040Z,67.60
2023-04-19T21:47:31.856Z,67.28
2023-04-19T21:50:01.481Z,67.26
2023-04-19T21:52:29.652Z,67.17
2023-04-19T21:54:57.751Z,67.29
2023-04-19T21:57:27.092Z,66.88
2023-04-19T21:59:55.408Z,66.19
2023-04-19T22:02:23.895Z,65.20
2023-04-19T22:04:52.722Z,64.30
2023-04-19T22:07:23.852Z,64.08
2023-04-19T22:09:52.304Z,63.35
2023-04-19T22:12:20.464Z,62.90
2023-04-19T22:14:48.613Z,62.44
2023-04-19T22:17:18.505Z,62.08
2023-04-19T22:19:46.790Z,61.47
2023-04-19T22:22:14.986Z,61.46
2023-04-19T22:24:56.823Z,61.37
2023-04-19T22:27:26.163Z,61.40
2023-04-19T22:29:54.407Z,61.16
2023-04-19T22:32:22.725Z,61.00
2023-04-19T22:34:51.032Z,60.66
2023-04-19T22:37:19.523Z,59.64
2023-04-19T22:39:49.217Z,58.39
2023-04-19T22:42:17.297Z,57.80
2023-04-19T22:44:45.461Z,56.57
2023-04-19T22:47:14.411Z,55.87
2023-04-19T22:49:43.491Z,54.86
2023-04-19T22:52:12.741Z,53.88
2023-04-19T22:54:40.864Z,52.75
2023-04-19T22:57:11.164Z,51.94
2023-04-19T22:59:39.295Z,51.82
2023-04-19T23:02:07.403Z,51.01
2023-04-19T23:04:36.144Z,50.61
2023-04-19T23:07:04.925Z,50.25
2023-04-19T23:09:33.103Z,49.47
2023-04-19T23:12:02.045Z,48.85
2023-04-19T23:14:31.500Z,48.19
2023-04-19T23:17:00.629Z,47.49
2023-04-19T23:19:28.732Z,47.14
2023-04-19T23:21:56.872Z,46.85
2023-04-19T23:24:25.086Z,46.93
2023-04-19T23:26:53.178Z,46.79
2023-04-19T23:29:21.350Z,47.06
2023-04-19T23:31:50.981Z,47.32
2023-04-19T23:34:19.155Z,47.53
2023-04-19T23:36:47.288Z,47.74
2023-04-19T23:39:16.310Z,48.32
2023-04-19T23:41:44.626Z,49.26
2023-04-19T23:44:12.703Z,49.94
2023-04-19T23:46:40.886Z,50.56
2023-04-19T23:49:10.505Z,50.67
2023-04-19T23:51:38.601Z,50.93
2023-04-19T23:54:06.835Z,51.47
2023-04-19T23:56:34.933Z,52.36
2023-04-19T23:59:03.182Z,53.20
